sensor_id;sensor_type;location;lat;lon;timestamp;P1;durP1;ratioP1;P2;durP2;ratioP2
595;SDS011;19946;49.306;11.350;2022-10-31T00:00:58;379.50;;;367.90;;
595;SDS011;19946;49.306;11.350;2022-10-31T00:03:59;338.60;;;328.40;;
595;SDS011;19946;49.306;11.350;2022-10-31T00:07:03;423.20;;;410.20;;
595;SDS011;19946;49.306;11.350;2022-10-31T00:10:04;511.90;;;496.13;;
595;SDS011;19946;49.306;11.350;2022-10-31T00:13:05;304.17;;;295.37;;
595;SDS011;19946;49.306;11.350;2022-10-31T00:16:12;300.20;;;291.47;;
595;SDS011;19946;49.306;11.350;2022-10-31T00:19:14;277.30;;;269.30;;
595;SDS011;19946;49.306;11.350;2022-10-31T00:22:14;284.03;;;275.90;;
595;SDS011;19946;49.306;11.350;2022-10-31T00:25:14;280.80;;;272.80;;
595;SDS011;19946;49.306;11.350;2022-10-31T00:28:15;294.00;;;285.70;;
595;SDS011;19946;49.306;11.350;2022-10-31T00:31:15;293.97;;;285.77;;
595;SDS011;19946;49.306;11.350;2022-10-31T00:34:16;261.63;;;254.23;;
595;SDS011;19946;49.306;11.350;2022-10-31T00:37:16;291.87;;;283.67;;
595;SDS011;19946;49.306;11.350;2022-10-31T00:40:18;294.70;;;286.40;;
595;SDS011;19946;49.306;11.350;2022-10-31T00:43:18;264.97;;;257.57;;
595;SDS011;19946;49.306;11.350;2022-10-31T00:46:18;323.70;;;314.63;;
595;SDS011;19946;49.306;11.350;2022-10-31T00:49:19;358.03;;;348.00;;
595;SDS011;19946;49.306;11.350;2022-10-31T00:52:20;373.97;;;363.37;;
595;SDS011;19946;49.306;11.350;2022-10-31T00:55:20;369.77;;;359.23;;
595;SDS011;19946;49.306;11.350;2022-10-31T00:58:21;361.60;;;351.17;;
595;SDS011;19946;49.306;11.350;2022-10-31T01:01:21;333.33;;;323.83;;
595;SDS011;19946;49.306;11.350;2022-10-31T01:04:23;289.47;;;281.27;;
595;SDS011;19946;49.306;11.350;2022-10-31T01:07:23;360.80;;;350.40;;
595;SDS011;19946;49.306;11.350;2022-10-31T01:10:24;374.20;;;363.47;;
595;SDS011;19946;49.306;11.350;2022-10-31T01:13:25;347.33;;;337.43;;
595;SDS011;19946;49.306;11.350;2022-10-31T01:16:26;553.93;;;537.63;;
595;SDS011;19946;49.306;11.350;2022-10-31T01:19:27;538.23;;;522.40;;
595;SDS011;19946;49.306;11.350;2022-10-31T01:22:31;572.13;;;555.10;;
595;SDS011;19946;49.306;11.350;2022-10-31T01:25:34;487.50;;;472.70;;
595;SDS011;19946;49.306;11.350;2022-10-31T01:28:35;382.73;;;371.60;;
595;SDS011;19946;49.306;11.350;2022-10-31T01:31:38;339.93;;;330.43;;
595;SDS011;19946;49.306;11.350;2022-10-31T01:34:39;322.90;;;314.10;;
595;SDS011;19946;49.306;11.350;2022-10-31T01:37:39;272.13;;;264.63;;
595;SDS011;19946;49.306;11.350;2022-10-31T01:40:40;306.20;;;297.70;;
595;SDS011;19946;49.306;11.350;2022-10-31T01:43:53;306.70;;;298.17;;
595;SDS011;19946;49.306;11.350;2022-10-31T01:50:02;276.97;;;269.00;;
595;SDS011;19946;49.306;11.350;2022-10-31T01:53:06;311.40;;;302.40;;
595;SDS011;19946;49.306;11.350;2022-10-31T01:56:09;360.37;;;349.80;;
595;SDS011;19946;49.306;11.350;2022-10-31T01:59:11;330.40;;;320.80;;
595;SDS011;19946;49.306;11.350;2022-10-31T02:02:16;296.10;;;287.50;;
595;SDS011;19946;49.306;11.350;2022-10-31T02:05:20;416.90;;;404.23;;
595;SDS011;19946;49.306;11.350;2022-10-31T02:08:28;484.17;;;469.27;;
595;SDS011;19946;49.306;11.350;2022-10-31T02:11:31;432.80;;;419.10;;
595;SDS011;19946;49.306;11.350;2022-10-31T02:14:37;583.93;;;565.43;;
595;SDS011;19946;49.306;11.350;2022-10-31T02:17:37;616.53;;;597.87;;
595;SDS011;19946;49.306;11.350;2022-10-31T02:27:54;564.47;;;546.87;;
595;SDS011;19946;49.306;11.350;2022-10-31T02:37:25;531.83;;;515.67;;
595;SDS011;19946;49.306;11.350;2022-10-31T02:40:35;552.60;;;535.90;;
595;SDS011;19946;49.306;11.350;2022-10-31T02:44:00;513.23;;;497.83;;
595;SDS011;19946;49.306;11.350;2022-10-31T02:47:29;466.83;;;452.53;;
595;SDS011;19946;49.306;11.350;2022-10-31T02:50:35;423.70;;;410.47;;
595;SDS011;19946;49.306;11.350;2022-10-31T02:53:40;400.77;;;388.23;;
595;SDS011;19946;49.306;11.350;2022-10-31T02:56:42;440.83;;;426.97;;
595;SDS011;19946;49.306;11.350;2022-10-31T02:59:49;507.23;;;491.30;;
595;SDS011;19946;49.306;11.350;2022-10-31T03:02:56;489.87;;;474.27;;
595;SDS011;19946;49.306;11.350;2022-10-31T03:09:33;497.77;;;482.87;;
595;SDS011;19946;49.306;11.350;2022-10-31T03:16:14;493.03;;;478.43;;
595;SDS011;19946;49.306;11.350;2022-10-31T03:19:39;424.30;;;410.97;;
595;SDS011;19946;49.306;11.350;2022-10-31T03:22:42;494.87;;;478.97;;
595;SDS011;19946;49.306;11.350;2022-10-31T03:25:44;507.07;;;490.37;;
595;SDS011;19946;49.306;11.350;2022-10-31T03:28:51;518.07;;;500.73;;
595;SDS011;19946;49.306;11.350;2022-10-31T03:31:59;586.97;;;567.80;;
595;SDS011;19946;49.306;11.350;2022-10-31T03:35:03;677.80;;;656.40;;
595;SDS011;19946;49.306;11.350;2022-10-31T03:38:07;632.93;;;613.20;;
595;SDS011;19946;49.306;11.350;2022-10-31T03:41:11;557.73;;;540.33;;
595;SDS011;19946;49.306;11.350;2022-10-31T03:44:19;287.33;;;278.17;;
595;SDS011;19946;49.306;11.350;2022-10-31T03:47:30;256.80;;;248.90;;
595;SDS011;19946;49.306;11.350;2022-10-31T03:50:34;264.77;;;256.67;;
595;SDS011;19946;49.306;11.350;2022-10-31T03:54:13;341.23;;;330.13;;
595;SDS011;19946;49.306;11.350;2022-10-31T03:57:26;264.00;;;256.03;;
595;SDS011;19946;49.306;11.350;2022-10-31T04:00:40;246.17;;;238.83;;
595;SDS011;19946;49.306;11.350;2022-10-31T04:03:44;228.80;;;222.03;;
595;SDS011;19946;49.306;11.350;2022-10-31T04:06:46;235.00;;;228.00;;
595;SDS011;19946;49.306;11.350;2022-10-31T04:09:49;343.53;;;332.83;;
595;SDS011;19946;49.306;11.350;2022-10-31T04:12:58;294.37;;;285.67;;
595;SDS011;19946;49.306;11.350;2022-10-31T04:16:12;356.97;;;345.87;;
595;SDS011;19946;49.306;11.350;2022-10-31T04:19:15;357.17;;;346.03;;
595;SDS011;19946;49.306;11.350;2022-10-31T04:22:16;428.27;;;414.87;;
595;SDS011;19946;49.306;11.350;2022-10-31T04:25:17;405.73;;;392.83;;
595;SDS011;19946;49.306;11.350;2022-10-31T04:28:17;407.47;;;394.47;;
595;SDS011;19946;49.306;11.350;2022-10-31T04:31:19;357.83;;;346.33;;
595;SDS011;19946;49.306;11.350;2022-10-31T04:34:22;319.63;;;309.33;;
595;SDS011;19946;49.306;11.350;2022-10-31T04:37:23;346.00;;;334.40;;
595;SDS011;19946;49.306;11.350;2022-10-31T04:40:24;423.90;;;409.40;;
595;SDS011;19946;49.306;11.350;2022-10-31T04:43:57;240.00;;;232.50;;
595;SDS011;19946;49.306;11.350;2022-10-31T04:46:57;210.50;;;204.10;;
595;SDS011;19946;49.306;11.350;2022-10-31T04:49:57;415.47;;;401.77;;
595;SDS011;19946;49.306;11.350;2022-10-31T04:52:58;346.87;;;335.67;;
595;SDS011;19946;49.306;11.350;2022-10-31T04:56:02;490.23;;;473.93;;
595;SDS011;19946;49.306;11.350;2022-10-31T04:59:14;483.37;;;467.27;;
595;SDS011;19946;49.306;11.350;2022-10-31T05:02:23;364.60;;;352.33;;
595;SDS011;19946;49.306;11.350;2022-10-31T05:05:30;297.00;;;287.50;;
595;SDS011;19946;49.306;11.350;2022-10-31T05:08:33;306.50;;;296.53;;
595;SDS011;19946;49.306;11.350;2022-10-31T05:11:37;363.87;;;351.53;;
595;SDS011;19946;49.306;11.350;2022-10-31T05:14:59;418.47;;;404.07;;
595;SDS011;19946;49.306;11.350;2022-10-31T05:18:18;408.17;;;393.87;;
595;SDS011;19946;49.306;11.350;2022-10-31T05:21:37;540.60;;;521.50;;
595;SDS011;19946;49.306;11.350;2022-10-31T05:24:38;451.77;;;435.47;;
595;SDS011;19946;49.306;11.350;2022-10-31T05:27:39;471.60;;;454.63;;
595;SDS011;19946;49.306;11.350;2022-10-31T05:30:40;497.47;;;479.73;;
595;SDS011;19946;49.306;11.350;2022-10-31T05:33:45;458.17;;;441.67;;
595;SDS011;19946;49.306;11.350;2022-10-31T05:37:04;620.53;;;598.20;;
595;SDS011;19946;49.306;11.350;2022-10-31T05:40:05;634.97;;;612.67;;
595;SDS011;19946;49.306;11.350;2022-10-31T05:43:08;615.37;;;594.03;;
595;SDS011;19946;49.306;11.350;2022-10-31T05:46:08;631.50;;;609.87;;
595;SDS011;19946;49.306;11.350;2022-10-31T05:49:27;486.27;;;469.63;;
595;SDS011;19946;49.306;11.350;2022-10-31T05:52:46;287.93;;;278.63;;
595;SDS011;19946;49.306;11.350;2022-10-31T05:56:03;274.57;;;266.17;;
595;SDS011;19946;49.306;11.350;2022-10-31T05:59:03;268.60;;;260.50;;
595;SDS011;19946;49.306;11.350;2022-10-31T06:02:04;372.60;;;360.77;;
595;SDS011;19946;49.306;11.350;2022-10-31T06:05:28;433.83;;;419.83;;
595;SDS011;19946;49.306;11.350;2022-10-31T06:08:29;431.10;;;417.20;;
595;SDS011;19946;49.306;11.350;2022-10-31T06:11:31;480.53;;;465.20;;
595;SDS011;19946;49.306;11.350;2022-10-31T06:14:37;529.57;;;512.77;;
595;SDS011;19946;49.306;11.350;2022-10-31T06:17:38;562.40;;;544.20;;
595;SDS011;19946;49.306;11.350;2022-10-31T06:20:58;501.40;;;484.90;;
595;SDS011;19946;49.306;11.350;2022-10-31T06:23:59;475.97;;;460.07;;
595;SDS011;19946;49.306;11.350;2022-10-31T06:27:25;527.73;;;510.13;;
595;SDS011;19946;49.306;11.350;2022-10-31T06:30:27;376.03;;;363.47;;
595;SDS011;19946;49.306;11.350;2022-10-31T06:33:27;423.80;;;409.70;;
595;SDS011;19946;49.306;11.350;2022-10-31T06:36:34;429.10;;;414.73;;
595;SDS011;19946;49.306;11.350;2022-10-31T06:39:36;460.50;;;445.00;;
595;SDS011;19946;49.306;11.350;2022-10-31T06:42:38;482.33;;;466.23;;
595;SDS011;19946;49.306;11.350;2022-10-31T06:45:38;609.23;;;590.07;;
595;SDS011;19946;49.306;11.350;2022-10-31T06:48:59;571.23;;;553.13;;
595;SDS011;19946;49.306;11.350;2022-10-31T06:52:10;623.60;;;603.70;;
595;SDS011;19946;49.306;11.350;2022-10-31T06:55:11;644.23;;;623.73;;
595;SDS011;19946;49.306;11.350;2022-10-31T06:58:11;599.53;;;580.83;;
595;SDS011;19946;49.306;11.350;2022-10-31T07:01:13;574.07;;;556.67;;
595;SDS011;19946;49.306;11.350;2022-10-31T07:04:14;590.90;;;572.60;;
595;SDS011;19946;49.306;11.350;2022-10-31T07:07:14;605.93;;;586.83;;
595;SDS011;19946;49.306;11.350;2022-10-31T07:10:14;582.33;;;563.97;;
595;SDS011;19946;49.306;11.350;2022-10-31T07:13:24;570.33;;;552.43;;
595;SDS011;19946;49.306;11.350;2022-10-31T07:16:28;586.63;;;568.13;;
595;SDS011;19946;49.306;11.350;2022-10-31T07:19:29;553.47;;;536.10;;
595;SDS011;19946;49.306;11.350;2022-10-31T07:22:33;536.47;;;519.70;;
595;SDS011;19946;49.306;11.350;2022-10-31T07:25:34;523.53;;;507.23;;
595;SDS011;19946;49.306;11.350;2022-10-31T07:28:46;502.67;;;487.30;;
595;SDS011;19946;49.306;11.350;2022-10-31T07:31:48;554.03;;;537.03;;
595;SDS011;19946;49.306;11.350;2022-10-31T07:34:55;550.87;;;533.83;;
595;SDS011;19946;49.306;11.350;2022-10-31T07:37:57;442.60;;;428.60;;
595;SDS011;19946;49.306;11.350;2022-10-31T07:40:58;357.53;;;346.40;;
595;SDS011;19946;49.306;11.350;2022-10-31T07:44:01;443.73;;;429.70;;
595;SDS011;19946;49.306;11.350;2022-10-31T07:47:21;371.03;;;359.57;;
595;SDS011;19946;49.306;11.350;2022-10-31T07:50:42;414.83;;;402.00;;
595;SDS011;19946;49.306;11.350;2022-10-31T07:54:01;405.83;;;393.23;;
595;SDS011;19946;49.306;11.350;2022-10-31T07:57:04;411.53;;;398.63;;
595;SDS011;19946;49.306;11.350;2022-10-31T08:00:08;443.23;;;429.00;;
595;SDS011;19946;49.306;11.350;2022-10-31T08:03:15;517.70;;;500.93;;
595;SDS011;19946;49.306;11.350;2022-10-31T08:06:47;517.60;;;500.70;;
595;SDS011;19946;49.306;11.350;2022-10-31T08:10:01;563.70;;;545.13;;
595;SDS011;19946;49.306;11.350;2022-10-31T08:13:08;417.67;;;404.10;;
595;SDS011;19946;49.306;11.350;2022-10-31T08:16:13;517.67;;;500.33;;
595;SDS011;19946;49.306;11.350;2022-10-31T08:19:23;522.17;;;504.80;;
595;SDS011;19946;49.306;11.350;2022-10-31T08:22:24;608.27;;;587.37;;
595;SDS011;19946;49.306;11.350;2022-10-31T08:25:25;608.40;;;587.50;;
595;SDS011;19946;49.306;11.350;2022-10-31T08:28:26;639.93;;;617.73;;
595;SDS011;19946;49.306;11.350;2022-10-31T08:31:28;602.80;;;581.70;;
595;SDS011;19946;49.306;11.350;2022-10-31T08:35:01;643.97;;;620.37;;
595;SDS011;19946;49.306;11.350;2022-10-31T08:38:08;386.03;;;371.53;;
595;SDS011;19946;49.306;11.350;2022-10-31T08:41:11;322.53;;;310.00;;
595;SDS011;19946;49.306;11.350;2022-10-31T08:44:11;190.40;;;182.53;;
595;SDS011;19946;49.306;11.350;2022-10-31T08:47:12;140.23;;;134.13;;
595;SDS011;19946;49.306;11.350;2022-10-31T08:50:12;82.33;;;78.37;;
595;SDS011;19946;49.306;11.350;2022-10-31T08:53:17;72.13;;;68.47;;
595;SDS011;19946;49.306;11.350;2022-10-31T08:56:22;71.70;;;68.20;;
595;SDS011;19946;49.306;11.350;2022-10-31T08:59:23;40.40;;;37.83;;
595;SDS011;19946;49.306;11.350;2022-10-31T09:02:42;28.77;;;26.67;;
595;SDS011;19946;49.306;11.350;2022-10-31T09:05:42;27.20;;;25.60;;
595;SDS011;19946;49.306;11.350;2022-10-31T09:08:45;27.70;;;26.00;;
595;SDS011;19946;49.306;11.350;2022-10-31T09:11:45;25.03;;;23.73;;
595;SDS011;19946;49.306;11.350;2022-10-31T09:15:04;24.80;;;23.50;;
595;SDS011;19946;49.306;11.350;2022-10-31T09:18:26;23.80;;;22.60;;
595;SDS011;19946;49.306;11.350;2022-10-31T09:21:32;24.83;;;23.53;;
595;SDS011;19946;49.306;11.350;2022-10-31T09:24:33;25.33;;;24.00;;
595;SDS011;19946;49.306;11.350;2022-10-31T09:27:33;26.57;;;25.17;;
595;SDS011;19946;49.306;11.350;2022-10-31T09:30:35;25.30;;;24.00;;
595;SDS011;19946;49.306;11.350;2022-10-31T09:33:36;30.23;;;28.73;;
595;SDS011;19946;49.306;11.350;2022-10-31T09:36:57;29.93;;;28.47;;
595;SDS011;19946;49.306;11.350;2022-10-31T09:39:58;32.60;;;31.10;;
595;SDS011;19946;49.306;11.350;2022-10-31T09:43:13;31.07;;;29.57;;
595;SDS011;19946;49.306;11.350;2022-10-31T09:46:28;30.97;;;29.37;;
595;SDS011;19946;49.306;11.350;2022-10-31T09:53:00;30.60;;;29.10;;
595;SDS011;19946;49.306;11.350;2022-10-31T09:56:07;31.80;;;30.20;;
595;SDS011;19946;49.306;11.350;2022-10-31T09:59:24;31.67;;;29.97;;
595;SDS011;19946;49.306;11.350;2022-10-31T10:02:36;31.07;;;29.57;;
595;SDS011;19946;49.306;11.350;2022-10-31T10:05:41;31.03;;;29.53;;
595;SDS011;19946;49.306;11.350;2022-10-31T10:08:54;31.17;;;29.67;;
595;SDS011;19946;49.306;11.350;2022-10-31T10:25:43;36.60;;;35.00;;
595;SDS011;19946;49.306;11.350;2022-10-31T10:29:01;29.10;;;27.80;;
595;SDS011;19946;49.306;11.350;2022-10-31T10:32:10;27.20;;;26.00;;
595;SDS011;19946;49.306;11.350;2022-10-31T10:35:34;27.00;;;25.80;;
595;SDS011;19946;49.306;11.350;2022-10-31T10:38:48;27.20;;;26.00;;
595;SDS011;19946;49.306;11.350;2022-10-31T10:41:52;26.97;;;25.73;;
595;SDS011;19946;49.306;11.350;2022-10-31T10:45:15;26.70;;;25.60;;
595;SDS011;19946;49.306;11.350;2022-10-31T10:48:45;27.60;;;26.40;;
595;SDS011;19946;49.306;11.350;2022-10-31T10:58:26;25.30;;;24.30;;
595;SDS011;19946;49.306;11.350;2022-10-31T11:01:26;25.40;;;24.40;;
595;SDS011;19946;49.306;11.350;2022-10-31T11:04:31;25.40;;;24.40;;
595;SDS011;19946;49.306;11.350;2022-10-31T11:07:37;26.63;;;25.63;;
595;SDS011;19946;49.306;11.350;2022-10-31T11:10:39;26.13;;;25.13;;
595;SDS011;19946;49.306;11.350;2022-10-31T11:13:40;24.20;;;23.30;;
595;SDS011;19946;49.306;11.350;2022-10-31T11:16:43;23.80;;;22.90;;
595;SDS011;19946;49.306;11.350;2022-10-31T11:19:47;23.50;;;22.70;;
595;SDS011;19946;49.306;11.350;2022-10-31T11:22:48;24.83;;;23.93;;
595;SDS011;19946;49.306;11.350;2022-10-31T11:26:14;24.53;;;23.63;;
595;SDS011;19946;49.306;11.350;2022-10-31T11:29:22;23.00;;;22.20;;
595;SDS011;19946;49.306;11.350;2022-10-31T11:32:27;24.83;;;23.60;;
595;SDS011;19946;49.306;11.350;2022-10-31T11:35:28;23.20;;;22.40;;
595;SDS011;19946;49.306;11.350;2022-10-31T11:38:33;24.43;;;23.53;;
595;SDS011;19946;49.306;11.350;2022-10-31T11:41:39;24.07;;;23.27;;
595;SDS011;19946;49.306;11.350;2022-10-31T11:44:43;22.60;;;21.80;;
595;SDS011;19946;49.306;11.350;2022-10-31T11:47:48;22.60;;;21.80;;
595;SDS011;19946;49.306;11.350;2022-10-31T11:50:56;22.50;;;21.70;;
595;SDS011;19946;49.306;11.350;2022-10-31T11:53:58;22.20;;;21.50;;
595;SDS011;19946;49.306;11.350;2022-10-31T11:57:02;22.70;;;22.00;;
595;SDS011;19946;49.306;11.350;2022-10-31T12:00:03;22.30;;;21.50;;
595;SDS011;19946;49.306;11.350;2022-10-31T12:06:30;21.60;;;20.90;;
595;SDS011;19946;49.306;11.350;2022-10-31T12:09:34;24.50;;;23.63;;
595;SDS011;19946;49.306;11.350;2022-10-31T12:15:54;21.13;;;20.43;;
595;SDS011;19946;49.306;11.350;2022-10-31T12:19:05;21.00;;;20.20;;
595;SDS011;19946;49.306;11.350;2022-10-31T12:32:41;20.10;;;19.40;;
595;SDS011;19946;49.306;11.350;2022-10-31T12:49:12;18.93;;;18.33;;
595;SDS011;19946;49.306;11.350;2022-10-31T12:59:30;18.30;;;17.70;;
595;SDS011;19946;49.306;11.350;2022-10-31T13:02:38;17.97;;;17.47;;
595;SDS011;19946;49.306;11.350;2022-10-31T13:05:46;18.30;;;17.80;;
595;SDS011;19946;49.306;11.350;2022-10-31T13:09:08;18.20;;;17.60;;
595;SDS011;19946;49.306;11.350;2022-10-31T13:12:12;17.00;;;16.50;;
595;SDS011;19946;49.306;11.350;2022-10-31T13:15:19;17.77;;;17.27;;
595;SDS011;19946;49.306;11.350;2022-10-31T13:21:30;17.40;;;16.90;;
595;SDS011;19946;49.306;11.350;2022-10-31T13:24:38;16.97;;;16.47;;
595;SDS011;19946;49.306;11.350;2022-10-31T13:30:49;16.30;;;15.90;;
595;SDS011;19946;49.306;11.350;2022-10-31T13:33:53;16.33;;;15.93;;
595;SDS011;19946;49.306;11.350;2022-10-31T13:37:03;15.80;;;15.40;;
595;SDS011;19946;49.306;11.350;2022-10-31T13:40:31;15.77;;;15.37;;
595;SDS011;19946;49.306;11.350;2022-10-31T13:46:54;14.90;;;14.50;;
595;SDS011;19946;49.306;11.350;2022-10-31T13:50:05;14.90;;;14.50;;
595;SDS011;19946;49.306;11.350;2022-10-31T13:53:34;15.10;;;14.70;;
595;SDS011;19946;49.306;11.350;2022-10-31T13:56:43;15.00;;;14.60;;
595;SDS011;19946;49.306;11.350;2022-10-31T13:59:53;15.20;;;14.80;;
595;SDS011;19946;49.306;11.350;2022-10-31T14:02:56;14.60;;;14.30;;
595;SDS011;19946;49.306;11.350;2022-10-31T14:05:57;15.33;;;14.93;;
595;SDS011;19946;49.306;11.350;2022-10-31T14:08:58;15.20;;;14.80;;
595;SDS011;19946;49.306;11.350;2022-10-31T14:12:00;15.03;;;14.63;;
595;SDS011;19946;49.306;11.350;2022-10-31T14:15:18;15.10;;;14.70;;
595;SDS011;19946;49.306;11.350;2022-10-31T14:18:24;15.37;;;14.97;;
595;SDS011;19946;49.306;11.350;2022-10-31T14:21:36;14.90;;;14.50;;
595;SDS011;19946;49.306;11.350;2022-10-31T14:24:39;14.90;;;14.50;;
595;SDS011;19946;49.306;11.350;2022-10-31T14:27:45;14.53;;;14.23;;
595;SDS011;19946;49.306;11.350;2022-10-31T14:30:53;13.80;;;13.50;;
595;SDS011;19946;49.306;11.350;2022-10-31T14:33:59;12.80;;;12.50;;
595;SDS011;19946;49.306;11.350;2022-10-31T14:44:02;11.87;;;11.67;;
595;SDS011;19946;49.306;11.350;2022-10-31T14:47:06;12.40;;;12.13;;
595;SDS011;19946;49.306;11.350;2022-10-31T14:56:35;11.40;;;11.20;;
595;SDS011;19946;49.306;11.350;2022-10-31T14:59:40;11.57;;;11.37;;
595;SDS011;19946;49.306;11.350;2022-10-31T15:06:22;13.23;;;12.93;;
595;SDS011;19946;49.306;11.350;2022-10-31T15:09:31;11.30;;;11.10;;
595;SDS011;19946;49.306;11.350;2022-10-31T15:12:35;11.40;;;11.20;;
595;SDS011;19946;49.306;11.350;2022-10-31T15:15:38;11.50;;;11.30;;
595;SDS011;19946;49.306;11.350;2022-10-31T15:18:46;12.00;;;11.70;;
595;SDS011;19946;49.306;11.350;2022-10-31T15:21:49;12.50;;;12.00;;
595;SDS011;19946;49.306;11.350;2022-10-31T15:24:52;15.33;;;14.93;;
595;SDS011;19946;49.306;11.350;2022-10-31T15:27:56;11.20;;;10.80;;
595;SDS011;19946;49.306;11.350;2022-10-31T15:31:00;10.53;;;10.33;;
595;SDS011;19946;49.306;11.350;2022-10-31T15:34:05;10.57;;;10.37;;
595;SDS011;19946;49.306;11.350;2022-10-31T15:37:19;11.20;;;11.00;;
595;SDS011;19946;49.306;11.350;2022-10-31T15:40:22;10.27;;;10.07;;
595;SDS011;19946;49.306;11.350;2022-10-31T15:43:24;10.33;;;10.13;;
595;SDS011;19946;49.306;11.350;2022-10-31T15:46:25;10.30;;;10.10;;
595;SDS011;19946;49.306;11.350;2022-10-31T15:49:47;12.07;;;11.77;;
595;SDS011;19946;49.306;11.350;2022-10-31T15:52:50;10.60;;;10.40;;
595;SDS011;19946;49.306;11.350;2022-10-31T15:55:58;10.87;;;10.67;;
595;SDS011;19946;49.306;11.350;2022-10-31T15:59:01;9.73;;;9.53;;
595;SDS011;19946;49.306;11.350;2022-10-31T16:02:03;9.90;;;9.70;;
595;SDS011;19946;49.306;11.350;2022-10-31T16:05:17;10.57;;;10.37;;
595;SDS011;19946;49.306;11.350;2022-10-31T16:08:21;10.07;;;9.87;;
595;SDS011;19946;49.306;11.350;2022-10-31T16:11:35;8.67;;;8.50;;
595;SDS011;19946;49.306;11.350;2022-10-31T16:14:38;9.10;;;8.90;;
595;SDS011;19946;49.306;11.350;2022-10-31T16:17:40;9.50;;;9.30;;
595;SDS011;19946;49.306;11.350;2022-10-31T16:20:48;10.80;;;10.60;;
595;SDS011;19946;49.306;11.350;2022-10-31T16:23:51;10.20;;;10.00;;
595;SDS011;19946;49.306;11.350;2022-10-31T16:26:59;10.37;;;10.17;;
595;SDS011;19946;49.306;11.350;2022-10-31T16:33:29;10.53;;;10.23;;
595;SDS011;19946;49.306;11.350;2022-10-31T16:36:36;10.30;;;10.10;;
595;SDS011;19946;49.306;11.350;2022-10-31T16:39:39;10.97;;;10.67;;
595;SDS011;19946;49.306;11.350;2022-10-31T16:42:40;10.57;;;10.17;;
595;SDS011;19946;49.306;11.350;2022-10-31T16:45:42;9.73;;;9.53;;
595;SDS011;19946;49.306;11.350;2022-10-31T16:48:47;11.60;;;11.10;;
595;SDS011;19946;49.306;11.350;2022-10-31T16:51:48;11.03;;;10.73;;
595;SDS011;19946;49.306;11.350;2022-10-31T16:54:48;11.00;;;10.80;;
595;SDS011;19946;49.306;11.350;2022-10-31T16:57:52;10.50;;;10.30;;
595;SDS011;19946;49.306;11.350;2022-10-31T17:00:56;9.60;;;9.40;;
595;SDS011;19946;49.306;11.350;2022-10-31T17:03:57;10.33;;;10.10;;
595;SDS011;19946;49.306;11.350;2022-10-31T17:07:01;9.10;;;9.00;;
595;SDS011;19946;49.306;11.350;2022-10-31T17:10:01;8.90;;;8.80;;
595;SDS011;19946;49.306;11.350;2022-10-31T17:13:04;8.70;;;8.60;;
595;SDS011;19946;49.306;11.350;2022-10-31T17:16:07;8.77;;;8.67;;
595;SDS011;19946;49.306;11.350;2022-10-31T17:19:11;8.33;;;8.23;;
595;SDS011;19946;49.306;11.350;2022-10-31T17:22:12;7.30;;;7.20;;
595;SDS011;19946;49.306;11.350;2022-10-31T17:25:15;8.00;;;7.90;;
595;SDS011;19946;49.306;11.350;2022-10-31T17:28:17;9.70;;;9.30;;
595;SDS011;19946;49.306;11.350;2022-10-31T17:31:19;9.40;;;9.20;;
595;SDS011;19946;49.306;11.350;2022-10-31T17:34:22;8.93;;;8.73;;
595;SDS011;19946;49.306;11.350;2022-10-31T17:37:23;16.90;;;16.20;;
595;SDS011;19946;49.306;11.350;2022-10-31T17:40:23;11.70;;;11.20;;
595;SDS011;19946;49.306;11.350;2022-10-31T17:43:24;10.40;;;9.90;;
595;SDS011;19946;49.306;11.350;2022-10-31T17:46:26;20.47;;;19.53;;
595;SDS011;19946;49.306;11.350;2022-10-31T17:49:27;20.80;;;19.80;;
595;SDS011;19946;49.306;11.350;2022-10-31T17:52:27;16.77;;;15.83;;
595;SDS011;19946;49.306;11.350;2022-10-31T17:55:28;8.80;;;8.30;;
595;SDS011;19946;49.306;11.350;2022-10-31T17:58:28;10.30;;;9.80;;
595;SDS011;19946;49.306;11.350;2022-10-31T18:01:29;8.00;;;7.60;;
595;SDS011;19946;49.306;11.350;2022-10-31T18:04:30;7.87;;;7.43;;
595;SDS011;19946;49.306;11.350;2022-10-31T18:07:31;9.10;;;8.80;;
595;SDS011;19946;49.306;11.350;2022-10-31T18:10:32;8.60;;;8.10;;
595;SDS011;19946;49.306;11.350;2022-10-31T18:13:32;8.57;;;8.17;;
595;SDS011;19946;49.306;11.350;2022-10-31T18:16:32;10.87;;;10.07;;
595;SDS011;19946;49.306;11.350;2022-10-31T18:19:33;11.67;;;11.10;;
595;SDS011;19946;49.306;11.350;2022-10-31T18:22:34;17.67;;;17.07;;
595;SDS011;19946;49.306;11.350;2022-10-31T18:25:34;15.37;;;14.87;;
595;SDS011;19946;49.306;11.350;2022-10-31T18:28:43;16.47;;;15.47;;
595;SDS011;19946;49.306;11.350;2022-10-31T18:31:46;14.27;;;13.67;;
595;SDS011;19946;49.306;11.350;2022-10-31T18:34:47;7.87;;;7.57;;
595;SDS011;19946;49.306;11.350;2022-10-31T18:37:48;9.63;;;8.80;;
595;SDS011;19946;49.306;11.350;2022-10-31T18:40:50;9.30;;;8.90;;
595;SDS011;19946;49.306;11.350;2022-10-31T18:43:50;10.17;;;9.77;;
595;SDS011;19946;49.306;11.350;2022-10-31T18:46:53;7.80;;;7.53;;
595;SDS011;19946;49.306;11.350;2022-10-31T18:49:56;11.30;;;10.80;;
595;SDS011;19946;49.306;11.350;2022-10-31T18:52:59;14.63;;;14.13;;
595;SDS011;19946;49.306;11.350;2022-10-31T18:56:00;12.93;;;12.17;;
595;SDS011;19946;49.306;11.350;2022-10-31T18:59:01;18.90;;;17.83;;
595;SDS011;19946;49.306;11.350;2022-10-31T19:02:05;17.43;;;16.83;;
595;SDS011;19946;49.306;11.350;2022-10-31T19:05:06;19.60;;;18.90;;
595;SDS011;19946;49.306;11.350;2022-10-31T19:08:06;13.90;;;13.30;;
595;SDS011;19946;49.306;11.350;2022-10-31T19:11:11;16.13;;;15.53;;
595;SDS011;19946;49.306;11.350;2022-10-31T19:14:12;11.20;;;10.70;;
595;SDS011;19946;49.306;11.350;2022-10-31T19:17:13;12.83;;;11.60;;
595;SDS011;19946;49.306;11.350;2022-10-31T19:20:14;24.43;;;23.03;;
595;SDS011;19946;49.306;11.350;2022-10-31T19:23:15;17.67;;;16.83;;
595;SDS011;19946;49.306;11.350;2022-10-31T19:26:23;7.07;;;6.97;;
595;SDS011;19946;49.306;11.350;2022-10-31T19:29:24;6.50;;;6.40;;
595;SDS011;19946;49.306;11.350;2022-10-31T19:32:24;7.97;;;7.87;;
595;SDS011;19946;49.306;11.350;2022-10-31T19:35:24;6.20;;;6.10;;
595;SDS011;19946;49.306;11.350;2022-10-31T19:38:25;8.80;;;8.70;;
595;SDS011;19946;49.306;11.350;2022-10-31T19:41:27;8.77;;;8.67;;
595;SDS011;19946;49.306;11.350;2022-10-31T19:44:28;10.93;;;10.73;;
595;SDS011;19946;49.306;11.350;2022-10-31T19:47:31;10.70;;;10.50;;
595;SDS011;19946;49.306;11.350;2022-10-31T19:50:32;12.47;;;12.27;;
595;SDS011;19946;49.306;11.350;2022-10-31T19:53:32;22.83;;;22.23;;
595;SDS011;19946;49.306;11.350;2022-10-31T19:56:36;21.07;;;20.57;;
595;SDS011;19946;49.306;11.350;2022-10-31T19:59:37;19.37;;;18.90;;
595;SDS011;19946;49.306;11.350;2022-10-31T20:02:37;18.10;;;17.70;;
595;SDS011;19946;49.306;11.350;2022-10-31T20:05:39;27.20;;;26.50;;